BAW2812 EGKK-GMMX
Flight info
| Callsign | BAW2812 |
|---|---|
| Flight time | N/A |
| Altitude | 37000 |
| Route | IMVUR N63 SAM M195 LORKU DCT POZOF DCT BALDA/N0452F390 DCT BATAX DCT TOFEF DCT ALAGU DCT UBESO DCT AMSEL UR722 MABAP |
| Aircraft | A20N/M-SDE2E3FGHIRWXY/LB1 |
Departure
| Time | 2026-05-05 10:02 |
|---|---|
| Airport | London Gatwick Airport (EGKK) |
Arrival
| Time | N/A |
|---|---|
| Airport | Marrakesh Menara Airport (GMMX) |
| Time | Latitude | Longitude | Altitude | Speed | Heading |
|---|---|---|---|---|---|
| 2026-05-05 09:26 | 51.15660 | -0.17699 | 205 ft | 0 kts | 167° |
| 2026-05-05 09:50 | 51.15662 | -0.17700 | 204 ft | 1 kts | 167° |
| 2026-05-05 09:51 | 51.15669 | -0.17702 | 215 ft | 1 kts | 167° |
| 2026-05-05 09:51 | 51.15676 | -0.17705 | 214 ft | 1 kts | 167° |
| 2026-05-05 09:51 | 51.15684 | -0.17707 | 210 ft | 2 kts | 167° |
| 2026-05-05 09:51 | 51.15703 | -0.17714 | 207 ft | 3 kts | 167° |
| 2026-05-05 09:52 | 51.15722 | -0.17716 | 206 ft | 3 kts | 211° |
| 2026-05-05 09:52 | 51.15734 | -0.17698 | 214 ft | 2 kts | 245° |
| 2026-05-05 09:52 | 51.15737 | -0.17690 | 213 ft | 0 kts | 256° |
| 2026-05-05 09:52 | 51.15737 | -0.17689 | 213 ft | 0 kts | 257° |
| 2026-05-05 09:54 | 51.15736 | -0.17696 | 204 ft | 2 kts | 257° |
| 2026-05-05 09:55 | 51.15727 | -0.17755 | 208 ft | 8 kts | 257° |
| 2026-05-05 09:55 | 51.15712 | -0.17867 | 204 ft | 12 kts | 258° |
| 2026-05-05 09:55 | 51.15693 | -0.18009 | 208 ft | 14 kts | 257° |
| 2026-05-05 09:55 | 51.15669 | -0.18175 | 208 ft | 16 kts | 257° |
| 2026-05-05 09:56 | 51.15637 | -0.18346 | 208 ft | 15 kts | 224° |
| 2026-05-05 09:56 | 51.15541 | -0.18332 | 204 ft | 15 kts | 168° |
| 2026-05-05 09:56 | 51.15428 | -0.18294 | 212 ft | 18 kts | 167° |
| 2026-05-05 09:56 | 51.15299 | -0.18249 | 215 ft | 20 kts | 167° |
| 2026-05-05 09:57 | 51.15163 | -0.18202 | 215 ft | 17 kts | 169° |
| 2026-05-05 09:57 | 51.15097 | -0.18315 | 207 ft | 17 kts | 256° |
| 2026-05-05 09:57 | 51.15071 | -0.18508 | 209 ft | 19 kts | 259° |
| 2026-05-05 09:57 | 51.15042 | -0.18727 | 212 ft | 21 kts | 257° |
| 2026-05-05 09:58 | 51.15009 | -0.18967 | 208 ft | 23 kts | 257° |
| 2026-05-05 09:58 | 51.14974 | -0.19216 | 215 ft | 23 kts | 257° |
| 2026-05-05 09:58 | 51.14940 | -0.19469 | 214 ft | 25 kts | 258° |
| 2026-05-05 09:58 | 51.14901 | -0.19746 | 207 ft | 26 kts | 257° |
| 2026-05-05 09:59 | 51.14860 | -0.20042 | 204 ft | 29 kts | 257° |
| 2026-05-05 09:59 | 51.14814 | -0.20362 | 206 ft | 30 kts | 257° |
| 2026-05-05 09:59 | 51.14771 | -0.20691 | 204 ft | 31 kts | 257° |
| 2026-05-05 09:59 | 51.14723 | -0.21029 | 215 ft | 31 kts | 258° |
| 2026-05-05 10:00 | 51.14686 | -0.21289 | 209 ft | 20 kts | 251° |
| 2026-05-05 10:00 | 51.14597 | -0.21326 | 205 ft | 13 kts | 163° |
| 2026-05-05 10:00 | 51.14524 | -0.21233 | 212 ft | 14 kts | 115° |
| 2026-05-05 10:00 | 51.14532 | -0.21088 | 208 ft | 13 kts | 76° |
| 2026-05-05 10:01 | 51.14554 | -0.20923 | 213 ft | 25 kts | 78° |
| 2026-05-05 10:01 | 51.14644 | -0.20284 | 214 ft | 91 kts | 78° |
| 2026-05-05 10:01 | 51.14819 | -0.19008 | 210 ft | 142 kts | 77° |
| 2026-05-05 10:01 | 51.15047 | -0.17366 | 557 ft | 156 kts | 75° |
| 2026-05-05 10:02 | 51.15303 | -0.15581 | 956 ft | 175 kts | 74° |
| 2026-05-05 10:02 | 51.15588 | -0.13639 | 1473 ft | 189 kts | 73° |
| 2026-05-05 10:02 | 51.15888 | -0.11453 | 1824 ft | 212 kts | 75° |
| 2026-05-05 10:02 | 51.16196 | -0.09116 | 2494 ft | 217 kts | 75° |
| 2026-05-05 10:03 | 51.16741 | -0.06871 | 3176 ft | 217 kts | 50° |
| 2026-05-05 10:03 | 51.17915 | -0.05439 | 4138 ft | 216 kts | 22° |
| 2026-05-05 10:03 | 51.19433 | -0.05156 | 4868 ft | 229 kts | 353° |
| 2026-05-05 10:03 | 51.20984 | -0.05842 | 5686 ft | 235 kts | 332° |
| 2026-05-05 10:04 | 51.22189 | -0.07595 | 6547 ft | 239 kts | 302° |
| 2026-05-05 10:04 | 51.22768 | -0.10165 | 7064 ft | 259 kts | 275° |
| 2026-05-05 10:04 | 51.22815 | -0.13157 | 7498 ft | 278 kts | 271° |
| 2026-05-05 10:04 | 51.22822 | -0.16288 | 7854 ft | 282 kts | 271° |
| 2026-05-05 10:05 | 51.22827 | -0.19447 | 8139 ft | 287 kts | 271° |
| 2026-05-05 10:05 | 51.22831 | -0.22645 | 9013 ft | 288 kts | 271° |
| 2026-05-05 10:05 | 51.22839 | -0.25819 | 9611 ft | 292 kts | 271° |
| 2026-05-05 10:05 | 51.22841 | -0.29088 | 10148 ft | 297 kts | 271° |
| 2026-05-05 10:06 | 51.22847 | -0.32497 | 10529 ft | 318 kts | 271° |
| 2026-05-05 10:06 | 51.22857 | -0.36149 | 10798 ft | 340 kts | 271° |
| 2026-05-05 10:06 | 51.22869 | -0.39967 | 11511 ft | 344 kts | 271° |
| 2026-05-05 10:06 | 51.22881 | -0.43815 | 12246 ft | 349 kts | 271° |
| 2026-05-05 10:07 | 51.22884 | -0.47729 | 12780 ft | 354 kts | 270° |
| 2026-05-05 10:07 | 51.22886 | -0.51702 | 13391 ft | 358 kts | 271° |
| 2026-05-05 10:07 | 51.22883 | -0.55689 | 14138 ft | 361 kts | 270° |
| 2026-05-05 10:07 | 51.22888 | -0.59709 | 14699 ft | 365 kts | 269° |
| 2026-05-05 10:08 | 51.22471 | -0.63640 | 14913 ft | 364 kts | 250° |
| 2026-05-05 10:08 | 51.21237 | -0.67162 | 15003 ft | 368 kts | 229° |
| 2026-05-05 10:08 | 51.19369 | -0.69989 | 15483 ft | 371 kts | 219° |
| 2026-05-05 10:08 | 51.17393 | -0.72606 | 16371 ft | 368 kts | 219° |
| 2026-05-05 10:09 | 51.15413 | -0.75211 | 17077 ft | 371 kts | 219° |
| 2026-05-05 10:09 | 51.13433 | -0.77861 | 17753 ft | 373 kts | 219° |
| 2026-05-05 10:09 | 51.11452 | -0.80553 | 18409 ft | 376 kts | 219° |
| 2026-05-05 10:09 | 51.09463 | -0.83277 | 18977 ft | 379 kts | 220° |
| 2026-05-05 10:10 | 51.07470 | -0.86028 | 19524 ft | 380 kts | 220° |
| 2026-05-05 10:10 | 51.05467 | -0.88786 | 20142 ft | 381 kts | 219° |
| 2026-05-05 10:10 | 51.03448 | -0.91552 | 20712 ft | 384 kts | 219° |
| 2026-05-05 10:10 | 51.01411 | -0.94338 | 21241 ft | 387 kts | 219° |
| 2026-05-05 10:11 | 50.99368 | -0.97133 | 21900 ft | 388 kts | 219° |
| 2026-05-05 10:11 | 50.97335 | -0.99911 | 22399 ft | 391 kts | 219° |
| 2026-05-05 10:11 | 50.95257 | -1.02745 | 22872 ft | 396 kts | 219° |
| 2026-05-05 10:11 | 50.93164 | -1.05600 | 23479 ft | 397 kts | 219° |
| 2026-05-05 10:12 | 50.91078 | -1.08442 | 24024 ft | 398 kts | 219° |
| 2026-05-05 10:12 | 50.88969 | -1.11309 | 24416 ft | 401 kts | 219° |
| 2026-05-05 10:12 | 50.86844 | -1.14193 | 24915 ft | 402 kts | 219° |
| 2026-05-05 10:12 | 50.84708 | -1.17090 | 25325 ft | 405 kts | 219° |
| 2026-05-05 10:13 | 50.82562 | -1.19998 | 25800 ft | 406 kts | 219° |
| 2026-05-05 10:13 | 50.80415 | -1.22903 | 26259 ft | 407 kts | 219° |
| 2026-05-05 10:13 | 50.78261 | -1.25815 | 26697 ft | 408 kts | 218° |
| 2026-05-05 10:13 | 50.76097 | -1.28736 | 27125 ft | 409 kts | 218° |
| 2026-05-05 10:14 | 50.73927 | -1.31661 | 27538 ft | 411 kts | 218° |
| 2026-05-05 10:14 | 50.71741 | -1.34604 | 27926 ft | 412 kts | 218° |
| 2026-05-05 10:14 | 50.69586 | -1.37503 | 28323 ft | 413 kts | 218° |
| 2026-05-05 10:14 | 50.67391 | -1.40451 | 28699 ft | 414 kts | 218° |
| 2026-05-05 10:15 | 50.65187 | -1.43406 | 29184 ft | 413 kts | 218° |
| 2026-05-05 10:15 | 50.62991 | -1.46348 | 29489 ft | 416 kts | 217° |
| 2026-05-05 10:15 | 50.60765 | -1.49325 | 29650 ft | 421 kts | 217° |
| 2026-05-05 10:15 | 50.58527 | -1.52317 | 30026 ft | 422 kts | 217° |
| 2026-05-05 10:16 | 50.56281 | -1.55314 | 30302 ft | 424 kts | 217° |
| 2026-05-05 10:16 | 50.54021 | -1.58325 | 30526 ft | 427 kts | 218° |
| 2026-05-05 10:16 | 50.51772 | -1.61318 | 30775 ft | 430 kts | 218° |
| 2026-05-05 10:16 | 50.49480 | -1.64363 | 31023 ft | 432 kts | 218° |
| 2026-05-05 10:17 | 50.47168 | -1.67432 | 31319 ft | 433 kts | 218° |
| 2026-05-05 10:17 | 50.44867 | -1.70481 | 31638 ft | 433 kts | 218° |
| 2026-05-05 10:17 | 50.42562 | -1.73531 | 31948 ft | 434 kts | 218° |
| 2026-05-05 10:17 | 50.40254 | -1.76580 | 32252 ft | 434 kts | 218° |
| 2026-05-05 10:18 | 50.37940 | -1.79635 | 32487 ft | 436 kts | 218° |
| 2026-05-05 10:18 | 50.35647 | -1.82656 | 32785 ft | 436 kts | 219° |
| 2026-05-05 10:18 | 50.33323 | -1.85716 | 33097 ft | 436 kts | 219° |
| 2026-05-05 10:18 | 50.30991 | -1.88779 | 33342 ft | 438 kts | 219° |
| 2026-05-05 10:19 | 50.28651 | -1.91849 | 33574 ft | 439 kts | 219° |
| 2026-05-05 10:19 | 50.26314 | -1.94913 | 33949 ft | 436 kts | 219° |
| 2026-05-05 10:19 | 50.23984 | -1.97963 | 34147 ft | 438 kts | 219° |
| 2026-05-05 10:19 | 50.21639 | -2.01029 | 34296 ft | 440 kts | 219° |
| 2026-05-05 10:20 | 50.19295 | -2.04092 | 34561 ft | 439 kts | 219° |
| 2026-05-05 10:20 | 50.16944 | -2.07157 | 34751 ft | 440 kts | 219° |
| 2026-05-05 10:20 | 50.14592 | -2.10221 | 34903 ft | 441 kts | 219° |
| 2026-05-05 10:20 | 50.13038 | -2.12244 | 35130 ft | 439 kts | 219° |
| 2026-05-05 10:21 | 50.09924 | -2.16290 | 35351 ft | 440 kts | 219° |
| 2026-05-05 10:21 | 50.07568 | -2.19349 | 35531 ft | 440 kts | 219° |
| 2026-05-05 10:21 | 50.05214 | -2.22399 | 35756 ft | 440 kts | 219° |
| 2026-05-05 10:21 | 50.02857 | -2.25449 | 35853 ft | 442 kts | 219° |
| 2026-05-05 10:22 | 50.01290 | -2.27475 | 35978 ft | 442 kts | 219° |
| 2026-05-05 10:22 | 49.98916 | -2.30541 | 36109 ft | 443 kts | 219° |
| 2026-05-05 10:22 | 49.95735 | -2.34553 | 36261 ft | 445 kts | 216° |
| 2026-05-05 10:22 | 49.93172 | -2.37230 | 36494 ft | 443 kts | 210° |
| 2026-05-05 10:23 | 49.90460 | -2.39501 | 36626 ft | 444 kts | 205° |
| 2026-05-05 10:23 | 49.88587 | -2.40807 | 36707 ft | 444 kts | 204° |
| 2026-05-05 10:23 | 49.85727 | -2.42776 | 36889 ft | 444 kts | 204° |
| 2026-05-05 10:23 | 49.82943 | -2.44707 | 36963 ft | 445 kts | 204° |
| 2026-05-05 10:24 | 49.77276 | -2.48654 | 36967 ft | 444 kts | 204° |
| 2026-05-05 10:24 | 49.71633 | -2.52580 | 36971 ft | 445 kts | 204° |
| 2026-05-05 10:25 | 49.66027 | -2.56470 | 36966 ft | 440 kts | 204° |
| 2026-05-05 10:25 | 49.60448 | -2.60328 | 36966 ft | 441 kts | 204° |
| 2026-05-05 10:26 | 49.54830 | -2.64203 | 36965 ft | 443 kts | 204° |
| 2026-05-05 10:26 | 49.49202 | -2.68077 | 36971 ft | 442 kts | 204° |
| 2026-05-05 10:27 | 49.43611 | -2.71916 | 36968 ft | 442 kts | 203° |
| 2026-05-05 10:27 | 49.37965 | -2.75782 | 36966 ft | 445 kts | 203° |
| 2026-05-05 10:28 | 49.32334 | -2.79629 | 36963 ft | 443 kts | 204° |
| 2026-05-05 10:28 | 49.26685 | -2.83477 | 36968 ft | 443 kts | 203° |
| 2026-05-05 10:29 | 49.21045 | -2.87311 | 36962 ft | 444 kts | 203° |
| 2026-05-05 10:29 | 49.15427 | -2.91120 | 36965 ft | 441 kts | 203° |
| 2026-05-05 10:30 | 49.09834 | -2.94902 | 36962 ft | 441 kts | 203° |
| 2026-05-05 10:30 | 49.04184 | -2.98712 | 36971 ft | 443 kts | 203° |
| 2026-05-05 10:31 | 48.98548 | -3.02504 | 36965 ft | 443 kts | 203° |
| 2026-05-05 10:31 | 48.92938 | -3.06269 | 36766 ft | 443 kts | 203° |
| 2026-05-05 10:32 | 48.90116 | -3.08160 | 36536 ft | 444 kts | 203° |
| 2026-05-05 10:32 | 48.87280 | -3.10057 | 36277 ft | 445 kts | 202° |
| 2026-05-05 10:32 | 48.84446 | -3.11951 | 36014 ft | 443 kts | 202° |
| 2026-05-05 10:32 | 48.81624 | -3.13835 | 35773 ft | 442 kts | 202° |
| 2026-05-05 10:33 | 48.78805 | -3.15713 | 35528 ft | 442 kts | 202° |
| 2026-05-05 10:33 | 48.75984 | -3.17591 | 35282 ft | 442 kts | 202° |
| 2026-05-05 10:33 | 48.73173 | -3.19461 | 35041 ft | 441 kts | 202° |
| 2026-05-05 10:33 | 48.70368 | -3.21324 | 34803 ft | 440 kts | 202° |
| 2026-05-05 10:34 | 48.67565 | -3.23183 | 34567 ft | 440 kts | 202° |
| 2026-05-05 10:34 | 48.64758 | -3.25043 | 34329 ft | 439 kts | 202° |
| 2026-05-05 10:34 | 48.61957 | -3.26896 | 34099 ft | 439 kts | 202° |
| 2026-05-05 10:34 | 48.59202 | -3.28720 | 33879 ft | 437 kts | 201° |
| 2026-05-05 10:35 | 48.56424 | -3.30560 | 33593 ft | 435 kts | 201° |
| 2026-05-05 10:35 | 48.53647 | -3.32393 | 33312 ft | 436 kts | 201° |
| 2026-05-05 10:35 | 48.50865 | -3.34226 | 33028 ft | 437 kts | 200° |
| 2026-05-05 10:35 | 48.48080 | -3.36058 | 32753 ft | 437 kts | 200° |
| 2026-05-05 10:36 | 48.45292 | -3.37890 | 32481 ft | 438 kts | 200° |
| 2026-05-05 10:36 | 48.42500 | -3.39723 | 32224 ft | 438 kts | 200° |
| 2026-05-05 10:36 | 48.39705 | -3.41555 | 31957 ft | 438 kts | 200° |
| 2026-05-05 10:36 | 48.36899 | -3.43395 | 31707 ft | 440 kts | 199° |
| 2026-05-05 10:37 | 48.34073 | -3.45241 | 31461 ft | 444 kts | 199° |
| 2026-05-05 10:37 | 48.31233 | -3.47094 | 31210 ft | 445 kts | 199° |
| 2026-05-05 10:37 | 48.28395 | -3.48948 | 30952 ft | 444 kts | 199° |
| 2026-05-05 10:37 | 48.25564 | -3.50794 | 30701 ft | 443 kts | 199° |
| 2026-05-05 10:38 | 48.22744 | -3.52631 | 30451 ft | 440 kts | 198° |
| 2026-05-05 10:38 | 48.19941 | -3.54454 | 30205 ft | 438 kts | 198° |
| 2026-05-05 10:38 | 48.17181 | -3.56246 | 29957 ft | 436 kts | 198° |
| 2026-05-05 10:38 | 48.14386 | -3.58055 | 29682 ft | 438 kts | 198° |
| 2026-05-05 10:39 | 48.11593 | -3.59859 | 29391 ft | 436 kts | 198° |
| 2026-05-05 10:39 | 48.08812 | -3.61658 | 29100 ft | 434 kts | 198° |
| 2026-05-05 10:39 | 48.06049 | -3.63443 | 28807 ft | 432 kts | 198° |
| 2026-05-05 10:39 | 48.03288 | -3.65225 | 28533 ft | 431 kts | 198° |
| 2026-05-05 10:40 | 48.00537 | -3.66996 | 28257 ft | 430 kts | 198° |
| 2026-05-05 10:40 | 47.97795 | -3.68760 | 27979 ft | 428 kts | 198° |
| 2026-05-05 10:40 | 47.95062 | -3.70516 | 27722 ft | 427 kts | 199° |
| 2026-05-05 10:40 | 47.92368 | -3.72243 | 27459 ft | 428 kts | 199° |
| 2026-05-05 10:41 | 47.89636 | -3.73994 | 27197 ft | 427 kts | 199° |
| 2026-05-05 10:41 | 47.86912 | -3.75738 | 26929 ft | 425 kts | 199° |
| 2026-05-05 10:41 | 47.84199 | -3.77473 | 26673 ft | 423 kts | 199° |
| 2026-05-05 10:41 | 47.81496 | -3.79200 | 26405 ft | 422 kts | 199° |
| 2026-05-05 10:42 | 47.76082 | -3.82648 | 25902 ft | 422 kts | 200° |
| 2026-05-05 10:42 | 47.73389 | -3.84363 | 25662 ft | 420 kts | 200° |
| 2026-05-05 10:42 | 47.70702 | -3.86073 | 25409 ft | 419 kts | 200° |
| 2026-05-05 10:43 | 47.68052 | -3.87757 | 25171 ft | 417 kts | 200° |
| 2026-05-05 10:43 | 47.65380 | -3.89453 | 24925 ft | 416 kts | 200° |
| 2026-05-05 10:43 | 47.62718 | -3.91141 | 24682 ft | 415 kts | 200° |
| 2026-05-05 10:43 | 47.60061 | -3.92824 | 24437 ft | 414 kts | 200° |
| 2026-05-05 10:44 | 47.57412 | -3.94499 | 24191 ft | 413 kts | 200° |
| 2026-05-05 10:44 | 47.54777 | -3.96165 | 23956 ft | 411 kts | 200° |
| 2026-05-05 10:44 | 47.52149 | -3.97824 | 23728 ft | 410 kts | 200° |
| 2026-05-05 10:44 | 47.49521 | -3.99480 | 23486 ft | 410 kts | 200° |
| 2026-05-05 10:45 | 47.46900 | -4.01132 | 23233 ft | 409 kts | 200° |
| 2026-05-05 10:45 | 47.44290 | -4.02774 | 22951 ft | 407 kts | 200° |
| 2026-05-05 10:45 | 47.41692 | -4.04408 | 22664 ft | 405 kts | 200° |
| 2026-05-05 10:45 | 47.39098 | -4.06037 | 22388 ft | 404 kts | 201° |
| 2026-05-05 10:46 | 47.36519 | -4.07655 | 22119 ft | 402 kts | 201° |
| 2026-05-05 10:46 | 47.33969 | -4.09252 | 21850 ft | 401 kts | 201° |
| 2026-05-05 10:46 | 47.31403 | -4.10858 | 21584 ft | 400 kts | 201° |
| 2026-05-05 10:46 | 47.28847 | -4.12456 | 21326 ft | 397 kts | 201° |
| 2026-05-05 10:47 | 47.26308 | -4.14043 | 21068 ft | 395 kts | 201° |
| 2026-05-05 10:47 | 47.23770 | -4.15626 | 20802 ft | 397 kts | 201° |
| 2026-05-05 10:47 | 47.21221 | -4.17214 | 20543 ft | 397 kts | 201° |
| 2026-05-05 10:47 | 47.18684 | -4.18795 | 20289 ft | 396 kts | 201° |
| 2026-05-05 10:48 | 47.16151 | -4.20371 | 20034 ft | 394 kts | 201° |
| 2026-05-05 10:48 | 47.13626 | -4.21940 | 19784 ft | 392 kts | 201° |
| 2026-05-05 10:48 | 47.11115 | -4.23501 | 19536 ft | 391 kts | 201° |
| 2026-05-05 10:48 | 47.08603 | -4.25060 | 19298 ft | 392 kts | 202° |
| 2026-05-05 10:49 | 47.06128 | -4.26579 | 19055 ft | 388 kts | 200° |
| 2026-05-05 10:49 | 47.03597 | -4.27944 | 18815 ft | 386 kts | 199° |
| 2026-05-05 10:49 | 47.01074 | -4.29328 | 18574 ft | 388 kts | 199° |
| 2026-05-05 10:49 | 46.98547 | -4.30724 | 18335 ft | 388 kts | 200° |
| 2026-05-05 10:50 | 46.96036 | -4.32111 | 18067 ft | 383 kts | 200° |
| 2026-05-05 10:50 | 46.93544 | -4.33485 | 17814 ft | 382 kts | 200° |
| 2026-05-05 10:50 | 46.91047 | -4.34856 | 17529 ft | 384 kts | 200° |
| 2026-05-05 10:50 | 46.88535 | -4.36230 | 17264 ft | 383 kts | 200° |
| 2026-05-05 10:51 | 46.86096 | -4.37563 | 16992 ft | 374 kts | 200° |
| 2026-05-05 10:51 | 46.83662 | -4.38892 | 16730 ft | 373 kts | 200° |
| 2026-05-05 10:51 | 46.81211 | -4.40230 | 16468 ft | 377 kts | 200° |
| 2026-05-05 10:51 | 46.78751 | -4.41569 | 16200 ft | 375 kts | 200° |
| 2026-05-05 10:52 | 46.76311 | -4.42897 | 15954 ft | 371 kts | 200° |
| 2026-05-05 10:52 | 46.73934 | -4.44201 | 16053 ft | 365 kts | 201° |
| 2026-05-05 10:52 | 46.71583 | -4.45572 | 16502 ft | 360 kts | 202° |
| 2026-05-05 10:52 | 46.69245 | -4.47057 | 16443 ft | 379 kts | 204° |
| 2026-05-05 10:53 | 46.66759 | -4.48639 | 16619 ft | 394 kts | 199° |
| 2026-05-05 10:53 | 46.64183 | -4.49893 | 17664 ft | 385 kts | 197° |
| 2026-05-05 10:53 | 46.61650 | -4.51074 | 18628 ft | 381 kts | 197° |
| 2026-05-05 10:53 | 46.59127 | -4.52305 | 19204 ft | 385 kts | 198° |
| 2026-05-05 10:54 | 46.56579 | -4.53615 | 19654 ft | 392 kts | 198° |
| 2026-05-05 10:54 | 46.54011 | -4.54978 | 20325 ft | 392 kts | 199° |
| 2026-05-05 10:54 | 46.51476 | -4.56341 | 20941 ft | 394 kts | 199° |
| 2026-05-05 10:54 | 46.48889 | -4.57737 | 21493 ft | 397 kts | 198° |
| 2026-05-05 10:55 | 46.46287 | -4.59140 | 22077 ft | 400 kts | 198° |
| 2026-05-05 10:55 | 46.43671 | -4.60548 | 22665 ft | 402 kts | 198° |
| 2026-05-05 10:55 | 46.41033 | -4.61965 | 23211 ft | 406 kts | 198° |
| 2026-05-05 10:55 | 46.38378 | -4.63389 | 23717 ft | 409 kts | 198° |
| 2026-05-05 10:56 | 46.35694 | -4.64828 | 24173 ft | 412 kts | 198° |
| 2026-05-05 10:56 | 46.32998 | -4.66270 | 24625 ft | 415 kts | 198° |
| 2026-05-05 10:56 | 46.30280 | -4.67724 | 25061 ft | 418 kts | 198° |
| 2026-05-05 10:56 | 46.27542 | -4.69186 | 25490 ft | 420 kts | 198° |
| 2026-05-05 10:57 | 46.24822 | -4.70635 | 25961 ft | 422 kts | 198° |
| 2026-05-05 10:57 | 46.22062 | -4.72105 | 26379 ft | 425 kts | 198° |
| 2026-05-05 10:57 | 46.19277 | -4.73588 | 26773 ft | 428 kts | 198° |
| 2026-05-05 10:57 | 46.16473 | -4.75080 | 27166 ft | 431 kts | 198° |
| 2026-05-05 10:58 | 46.13650 | -4.76580 | 27561 ft | 433 kts | 198° |
| 2026-05-05 10:58 | 46.10804 | -4.78089 | 27876 ft | 437 kts | 198° |
| 2026-05-05 10:58 | 46.07936 | -4.79609 | 28203 ft | 440 kts | 198° |
| 2026-05-05 10:58 | 46.05053 | -4.81134 | 28607 ft | 442 kts | 198° |
| 2026-05-05 10:59 | 46.02154 | -4.82667 | 28950 ft | 445 kts | 198° |
| 2026-05-05 10:59 | 45.99236 | -4.84208 | 29277 ft | 447 kts | 198° |
| 2026-05-05 10:59 | 45.96308 | -4.85753 | 29599 ft | 450 kts | 198° |
| 2026-05-05 10:59 | 45.93393 | -4.87289 | 29920 ft | 452 kts | 197° |
| 2026-05-05 11:00 | 45.90428 | -4.88850 | 30200 ft | 455 kts | 197° |
| 2026-05-05 11:00 | 45.87449 | -4.90415 | 30480 ft | 457 kts | 198° |
| 2026-05-05 11:00 | 45.84453 | -4.91987 | 30765 ft | 459 kts | 198° |
| 2026-05-05 11:00 | 45.81444 | -4.93565 | 31023 ft | 461 kts | 198° |
| 2026-05-05 11:01 | 45.78421 | -4.95149 | 31322 ft | 462 kts | 198° |
| 2026-05-05 11:01 | 45.75386 | -4.96737 | 31680 ft | 462 kts | 199° |
| 2026-05-05 11:01 | 45.72364 | -4.98317 | 32035 ft | 462 kts | 199° |
| 2026-05-05 11:01 | 45.69345 | -4.99892 | 32347 ft | 462 kts | 199° |
| 2026-05-05 11:02 | 45.66316 | -5.01471 | 32666 ft | 462 kts | 199° |
| 2026-05-05 11:02 | 45.63332 | -5.03022 | 33024 ft | 462 kts | 199° |
| 2026-05-05 11:02 | 45.60305 | -5.04595 | 33310 ft | 462 kts | 199° |
| 2026-05-05 11:02 | 45.57274 | -5.06169 | 33638 ft | 462 kts | 200° |
| 2026-05-05 11:03 | 45.54260 | -5.07733 | 33947 ft | 462 kts | 200° |
| 2026-05-05 11:03 | 45.51227 | -5.09305 | 34065 ft | 465 kts | 200° |
| 2026-05-05 11:03 | 45.48213 | -5.10865 | 34284 ft | 465 kts | 200° |
| 2026-05-05 11:03 | 45.45179 | -5.12434 | 34609 ft | 463 kts | 200° |
| 2026-05-05 11:04 | 45.42151 | -5.13997 | 34813 ft | 463 kts | 200° |
| 2026-05-05 11:04 | 45.39116 | -5.15564 | 35097 ft | 462 kts | 200° |
| 2026-05-05 11:04 | 45.36091 | -5.17124 | 35325 ft | 462 kts | 200° |
| 2026-05-05 11:04 | 45.33064 | -5.18682 | 35511 ft | 462 kts | 200° |
| 2026-05-05 11:05 | 45.30047 | -5.20234 | 35782 ft | 460 kts | 200° |
| 2026-05-05 11:05 | 45.27028 | -5.21786 | 35981 ft | 461 kts | 201° |
| 2026-05-05 11:05 | 45.24011 | -5.23334 | 36194 ft | 460 kts | 201° |
| 2026-05-05 11:05 | 45.21037 | -5.24858 | 36415 ft | 459 kts | 201° |
| 2026-05-05 11:06 | 45.18034 | -5.26396 | 36599 ft | 459 kts | 201° |
| 2026-05-05 11:06 | 45.15026 | -5.27935 | 36775 ft | 459 kts | 200° |
| 2026-05-05 11:06 | 45.12013 | -5.29475 | 36968 ft | 459 kts | 201° |
| 2026-05-05 11:07 | 45.06005 | -5.32539 | 36994 ft | 457 kts | 201° |
| 2026-05-05 11:07 | 45.00022 | -5.35583 | 36994 ft | 457 kts | 201° |
| 2026-05-05 11:08 | 44.94008 | -5.38638 | 37002 ft | 460 kts | 201° |
| 2026-05-05 11:08 | 44.87991 | -5.41686 | 37002 ft | 459 kts | 201° |
| 2026-05-05 11:09 | 44.82977 | -5.44221 | 37002 ft | 459 kts | 201° |
| 2026-05-05 11:09 | 44.75994 | -5.47745 | 36999 ft | 459 kts | 201° |
| 2026-05-05 11:10 | 44.69987 | -5.50769 | 37001 ft | 459 kts | 201° |
| 2026-05-05 11:10 | 44.64983 | -5.53285 | 37002 ft | 458 kts | 201° |
| 2026-05-05 11:11 | 44.58924 | -5.56107 | 37000 ft | 459 kts | 196° |
| 2026-05-05 11:11 | 44.52752 | -5.58462 | 37003 ft | 459 kts | 197° |
| 2026-05-05 11:12 | 44.46575 | -5.60839 | 37216 ft | 460 kts | 197° |
| 2026-05-05 11:12 | 44.43491 | -5.62024 | 37410 ft | 460 kts | 197° |
| 2026-05-05 11:12 | 44.40407 | -5.63208 | 37576 ft | 459 kts | 197° |
| 2026-05-05 11:12 | 44.37326 | -5.64390 | 37739 ft | 459 kts | 197° |
| 2026-05-05 11:13 | 44.34279 | -5.65556 | 37890 ft | 459 kts | 197° |
| 2026-05-05 11:13 | 44.31197 | -5.66735 | 38041 ft | 459 kts | 197° |
| 2026-05-05 11:13 | 44.28117 | -5.67910 | 38183 ft | 459 kts | 197° |
| 2026-05-05 11:13 | 44.25032 | -5.69087 | 38340 ft | 458 kts | 197° |
| 2026-05-05 11:14 | 44.21955 | -5.70259 | 38477 ft | 458 kts | 197° |
| 2026-05-05 11:14 | 44.18874 | -5.71432 | 38589 ft | 458 kts | 197° |
| 2026-05-05 11:14 | 44.15790 | -5.72604 | 38641 ft | 460 kts | 197° |
| 2026-05-05 11:14 | 44.12700 | -5.73778 | 38747 ft | 460 kts | 197° |
| 2026-05-05 11:15 | 44.09615 | -5.74949 | 38847 ft | 459 kts | 197° |
| 2026-05-05 11:15 | 44.03481 | -5.77272 | 38998 ft | 459 kts | 197° |
| 2026-05-05 11:16 | 43.97301 | -5.79608 | 39020 ft | 459 kts | 197° |
| 2026-05-05 11:16 | 43.91164 | -5.81923 | 39020 ft | 459 kts | 197° |
| 2026-05-05 11:17 | 43.85001 | -5.84241 | 39024 ft | 457 kts | 198° |
| 2026-05-05 11:17 | 43.78846 | -5.86553 | 39023 ft | 457 kts | 197° |
| 2026-05-05 11:18 | 43.72731 | -5.88845 | 39029 ft | 458 kts | 198° |
| 2026-05-05 11:18 | 43.66576 | -5.91147 | 39031 ft | 458 kts | 198° |
| 2026-05-05 11:19 | 43.60410 | -5.93447 | 39043 ft | 458 kts | 198° |
| 2026-05-05 11:19 | 43.54239 | -5.95745 | 39038 ft | 459 kts | 198° |
| 2026-05-05 11:20 | 43.48063 | -5.98040 | 39039 ft | 459 kts | 198° |
| 2026-05-05 11:20 | 43.41928 | -6.00314 | 39030 ft | 459 kts | 198° |
| 2026-05-05 11:21 | 43.35734 | -6.02608 | 39022 ft | 464 kts | 198° |
| 2026-05-05 11:21 | 43.29461 | -6.04924 | 39025 ft | 468 kts | 198° |
| 2026-05-05 11:22 | 43.23172 | -6.07239 | 39019 ft | 467 kts | 198° |
| 2026-05-05 11:22 | 43.16885 | -6.09552 | 39020 ft | 469 kts | 198° |
| 2026-05-05 11:23 | 43.10566 | -6.11871 | 39022 ft | 469 kts | 198° |
| 2026-05-05 11:23 | 43.04278 | -6.14170 | 39014 ft | 469 kts | 198° |
| 2026-05-05 11:24 | 42.97971 | -6.16475 | 39010 ft | 469 kts | 198° |
| 2026-05-05 11:24 | 42.91665 | -6.18773 | 39011 ft | 469 kts | 198° |
| 2026-05-05 11:25 | 42.85392 | -6.21056 | 39001 ft | 469 kts | 198° |
| 2026-05-05 11:25 | 42.79087 | -6.23343 | 39011 ft | 468 kts | 198° |
| 2026-05-05 11:26 | 42.72788 | -6.25626 | 39022 ft | 468 kts | 198° |
| 2026-05-05 11:26 | 42.66486 | -6.27904 | 39018 ft | 468 kts | 198° |
| 2026-05-05 11:27 | 42.60191 | -6.30175 | 39014 ft | 468 kts | 198° |
| 2026-05-05 11:27 | 42.53896 | -6.32441 | 39010 ft | 468 kts | 198° |
| 2026-05-05 11:28 | 42.47639 | -6.34689 | 39009 ft | 468 kts | 198° |
| 2026-05-05 11:28 | 42.41351 | -6.36942 | 39008 ft | 467 kts | 198° |
| 2026-05-05 11:29 | 42.35053 | -6.39196 | 39009 ft | 467 kts | 198° |
| 2026-05-05 11:29 | 42.28744 | -6.41449 | 39012 ft | 471 kts | 198° |
| 2026-05-05 11:30 | 42.22384 | -6.43715 | 38994 ft | 473 kts | 198° |
| 2026-05-05 11:30 | 42.16020 | -6.45976 | 39004 ft | 473 kts | 198° |
| 2026-05-05 11:31 | 42.09683 | -6.48225 | 39005 ft | 474 kts | 198° |
| 2026-05-05 11:31 | 42.03290 | -6.50487 | 38999 ft | 474 kts | 198° |
| 2026-05-05 11:32 | 41.96912 | -6.52739 | 39004 ft | 474 kts | 198° |
| 2026-05-05 11:32 | 41.90537 | -6.54988 | 39014 ft | 474 kts | 198° |
| 2026-05-05 11:33 | 41.84158 | -6.57232 | 39012 ft | 474 kts | 198° |
| 2026-05-05 11:33 | 41.77772 | -6.59473 | 39007 ft | 473 kts | 199° |
| 2026-05-05 11:34 | 41.71449 | -6.61690 | 39015 ft | 473 kts | 199° |
| 2026-05-05 11:34 | 41.65076 | -6.63935 | 39027 ft | 473 kts | 199° |
| 2026-05-05 11:35 | 41.58724 | -6.66185 | 39025 ft | 471 kts | 199° |
| 2026-05-05 11:35 | 41.52393 | -6.68422 | 39029 ft | 472 kts | 199° |
| 2026-05-05 11:36 | 41.46047 | -6.70659 | 39039 ft | 472 kts | 199° |
| 2026-05-05 11:36 | 41.39691 | -6.72894 | 39042 ft | 472 kts | 199° |
| 2026-05-05 11:37 | 41.33345 | -6.75119 | 39041 ft | 471 kts | 199° |
| 2026-05-05 11:37 | 41.27048 | -6.77325 | 39042 ft | 470 kts | 199° |
| 2026-05-05 11:38 | 41.20714 | -6.79539 | 39049 ft | 471 kts | 199° |
| 2026-05-05 11:38 | 41.14376 | -6.81750 | 39036 ft | 471 kts | 199° |
| 2026-05-05 11:39 | 41.08054 | -6.83950 | 39055 ft | 469 kts | 199° |
| 2026-05-05 11:39 | 41.01722 | -6.86149 | 39062 ft | 470 kts | 199° |
| 2026-05-05 11:40 | 40.95393 | -6.88344 | 39060 ft | 470 kts | 199° |
| 2026-05-05 11:40 | 40.89073 | -6.90529 | 39057 ft | 468 kts | 200° |
| 2026-05-05 11:41 | 40.82776 | -6.92703 | 39061 ft | 468 kts | 200° |
| 2026-05-05 11:41 | 40.76502 | -6.94867 | 39060 ft | 468 kts | 200° |
| 2026-05-05 11:42 | 40.70193 | -6.97038 | 39058 ft | 468 kts | 200° |
| 2026-05-05 11:42 | 40.63914 | -6.99191 | 39057 ft | 465 kts | 200° |
| 2026-05-05 11:43 | 40.57628 | -7.01346 | 39062 ft | 466 kts | 200° |
| 2026-05-05 11:43 | 40.51392 | -7.03479 | 39060 ft | 466 kts | 200° |
| 2026-05-05 11:44 | 40.45115 | -7.05622 | 39058 ft | 466 kts | 200° |
| 2026-05-05 11:44 | 40.38827 | -7.07764 | 39050 ft | 466 kts | 200° |
| 2026-05-05 11:45 | 40.32543 | -7.09901 | 39050 ft | 466 kts | 200° |
| 2026-05-05 11:45 | 40.26260 | -7.12033 | 39050 ft | 466 kts | 200° |
| 2026-05-05 11:46 | 40.20017 | -7.14143 | 39046 ft | 461 kts | 200° |
| 2026-05-05 11:46 | 40.13838 | -7.16235 | 39047 ft | 462 kts | 200° |
| 2026-05-05 11:47 | 40.07604 | -7.18339 | 39048 ft | 462 kts | 200° |
| 2026-05-05 11:47 | 40.01371 | -7.20439 | 39038 ft | 461 kts | 200° |
| 2026-05-05 11:48 | 39.92063 | -7.23567 | 39047 ft | 462 kts | 200° |
| 2026-05-05 11:48 | 39.85868 | -7.25644 | 39048 ft | 462 kts | 200° |
| 2026-05-05 11:49 | 39.79636 | -7.27728 | 39027 ft | 462 kts | 200° |
| 2026-05-05 11:49 | 39.73446 | -7.29793 | 39056 ft | 458 kts | 200° |
| 2026-05-05 11:50 | 39.67255 | -7.31859 | 39057 ft | 459 kts | 200° |
| 2026-05-05 11:50 | 39.61072 | -7.33916 | 39061 ft | 459 kts | 200° |
| 2026-05-05 11:51 | 39.54891 | -7.35968 | 39057 ft | 457 kts | 200° |
| 2026-05-05 11:51 | 39.48642 | -7.37406 | 39062 ft | 462 kts | 193° |
| 2026-05-05 11:52 | 39.42264 | -7.38504 | 39060 ft | 462 kts | 193° |
| 2026-05-05 11:52 | 39.35885 | -7.39617 | 39061 ft | 462 kts | 193° |
| 2026-05-05 11:53 | 39.29568 | -7.40719 | 39072 ft | 459 kts | 194° |
| 2026-05-05 11:53 | 39.23233 | -7.41827 | 39070 ft | 459 kts | 194° |
| 2026-05-05 11:54 | 39.16898 | -7.42931 | 39068 ft | 459 kts | 194° |
| 2026-05-05 11:54 | 39.10546 | -7.44035 | 39051 ft | 459 kts | 194° |
| 2026-05-05 11:55 | 39.04247 | -7.45126 | 39075 ft | 456 kts | 194° |
| 2026-05-05 11:55 | 38.97936 | -7.46222 | 39072 ft | 457 kts | 194° |
| 2026-05-05 11:56 | 38.91666 | -7.47306 | 39072 ft | 457 kts | 194° |
| 2026-05-05 11:56 | 38.85378 | -7.48389 | 39067 ft | 453 kts | 194° |
| 2026-05-05 11:57 | 38.79132 | -7.49466 | 39073 ft | 453 kts | 194° |
| 2026-05-05 11:57 | 38.72880 | -7.50544 | 39072 ft | 453 kts | 194° |
| 2026-05-05 11:58 | 38.66630 | -7.51617 | 39071 ft | 453 kts | 194° |
| 2026-05-05 11:58 | 38.61442 | -7.52505 | 39073 ft | 450 kts | 194° |
| 2026-05-05 11:59 | 38.55263 | -7.53563 | 39070 ft | 450 kts | 194° |
| 2026-05-05 11:59 | 38.48027 | -7.54801 | 39066 ft | 450 kts | 194° |
| 2026-05-05 12:00 | 38.42824 | -7.55689 | 39071 ft | 450 kts | 194° |
| 2026-05-05 12:00 | 38.36678 | -7.56730 | 39071 ft | 440 kts | 194° |
| 2026-05-05 12:01 | 38.30616 | -7.57764 | 39071 ft | 443 kts | 194° |
| 2026-05-05 12:01 | 38.24486 | -7.58807 | 39074 ft | 443 kts | 194° |
| 2026-05-05 12:02 | 38.18367 | -7.59844 | 39080 ft | 443 kts | 194° |
| 2026-05-05 12:02 | 38.12269 | -7.60877 | 39084 ft | 446 kts | 194° |
| 2026-05-05 12:03 | 38.06118 | -7.61898 | 39085 ft | 446 kts | 193° |
| 2026-05-05 12:03 | 37.99947 | -7.62817 | 39084 ft | 446 kts | 193° |
| 2026-05-05 12:04 | 37.93786 | -7.63732 | 39045 ft | 445 kts | 193° |
| 2026-05-05 12:04 | 37.87671 | -7.64649 | 39076 ft | 441 kts | 193° |
| 2026-05-05 12:05 | 37.81599 | -7.65565 | 39075 ft | 441 kts | 193° |
| 2026-05-05 12:05 | 37.75496 | -7.66481 | 39075 ft | 442 kts | 193° |
| 2026-05-05 12:06 | 37.69389 | -7.67397 | 39061 ft | 441 kts | 193° |
| 2026-05-05 12:06 | 37.63318 | -7.68305 | 39073 ft | 439 kts | 193° |
| 2026-05-05 12:07 | 37.57263 | -7.69211 | 39073 ft | 440 kts | 193° |
| 2026-05-05 12:07 | 37.51174 | -7.70119 | 39075 ft | 439 kts | 193° |
| 2026-05-05 12:08 | 37.45091 | -7.71025 | 39064 ft | 439 kts | 193° |
| 2026-05-05 12:08 | 37.39062 | -7.71921 | 39078 ft | 439 kts | 193° |
| 2026-05-05 12:09 | 37.32990 | -7.72822 | 39075 ft | 439 kts | 193° |
| 2026-05-05 12:09 | 37.26903 | -7.73724 | 39073 ft | 439 kts | 193° |
| 2026-05-05 12:10 | 37.20820 | -7.74623 | 39063 ft | 438 kts | 193° |
| 2026-05-05 12:10 | 37.14796 | -7.75514 | 39080 ft | 439 kts | 193° |
| 2026-05-05 12:11 | 37.08718 | -7.76410 | 39072 ft | 438 kts | 193° |
| 2026-05-05 12:11 | 37.02658 | -7.77303 | 39074 ft | 439 kts | 193° |
| 2026-05-05 12:12 | 36.96589 | -7.78195 | 39062 ft | 438 kts | 193° |
| 2026-05-05 12:12 | 36.90567 | -7.79079 | 39077 ft | 437 kts | 193° |
| 2026-05-05 12:13 | 36.84509 | -7.79966 | 39079 ft | 438 kts | 193° |
| 2026-05-05 12:13 | 36.78457 | -7.80852 | 39080 ft | 438 kts | 193° |
| 2026-05-05 12:14 | 36.72400 | -7.81696 | 39070 ft | 438 kts | 191° |
| 2026-05-05 12:14 | 36.66293 | -7.82212 | 39094 ft | 439 kts | 189° |
| 2026-05-05 12:15 | 36.60228 | -7.82705 | 39094 ft | 439 kts | 190° |
| 2026-05-05 12:15 | 36.54121 | -7.83240 | 39094 ft | 439 kts | 190° |
| 2026-05-05 12:16 | 36.48013 | -7.83785 | 39075 ft | 439 kts | 190° |
| 2026-05-05 12:16 | 36.41915 | -7.84330 | 39099 ft | 439 kts | 189° |
| 2026-05-05 12:17 | 36.35849 | -7.84869 | 39096 ft | 439 kts | 189° |
| 2026-05-05 12:17 | 36.29738 | -7.85412 | 39098 ft | 439 kts | 189° |
| 2026-05-05 12:18 | 36.23641 | -7.85953 | 39081 ft | 439 kts | 189° |
| 2026-05-05 12:18 | 36.17535 | -7.86494 | 39102 ft | 440 kts | 189° |
| 2026-05-05 12:19 | 36.11434 | -7.87033 | 39102 ft | 439 kts | 189° |
| 2026-05-05 12:19 | 36.05359 | -7.87569 | 39102 ft | 440 kts | 189° |
| 2026-05-05 12:20 | 35.99246 | -7.88108 | 39099 ft | 440 kts | 189° |
| 2026-05-05 12:20 | 35.93082 | -7.88043 | 39103 ft | 446 kts | 181° |
| 2026-05-05 12:21 | 35.86879 | -7.87453 | 39103 ft | 446 kts | 181° |
| 2026-05-05 12:21 | 35.80677 | -7.86883 | 39103 ft | 446 kts | 181° |
| 2026-05-05 12:22 | 35.74516 | -7.86324 | 39102 ft | 446 kts | 181° |
| 2026-05-05 12:22 | 35.68323 | -7.85764 | 39102 ft | 446 kts | 181° |
| 2026-05-05 12:23 | 35.62124 | -7.85204 | 39103 ft | 446 kts | 181° |
| 2026-05-05 12:23 | 35.55929 | -7.84645 | 39103 ft | 446 kts | 181° |
| 2026-05-05 12:24 | 35.49729 | -7.84086 | 39081 ft | 446 kts | 181° |
| 2026-05-05 12:24 | 35.43537 | -7.83530 | 39101 ft | 446 kts | 181° |
| 2026-05-05 12:25 | 35.37367 | -7.82987 | 39099 ft | 446 kts | 181° |
| 2026-05-05 12:25 | 35.31163 | -7.82468 | 39100 ft | 446 kts | 182° |
| 2026-05-05 12:26 | 35.24998 | -7.81951 | 39106 ft | 446 kts | 181° |
| 2026-05-05 12:26 | 35.18811 | -7.81430 | 39102 ft | 445 kts | 182° |
| 2026-05-05 12:27 | 35.12624 | -7.80910 | 39103 ft | 445 kts | 182° |
| 2026-05-05 12:27 | 35.06439 | -7.80391 | 39100 ft | 445 kts | 182° |
| 2026-05-05 12:28 | 35.00251 | -7.79872 | 39099 ft | 446 kts | 182° |
| 2026-05-05 12:28 | 34.94071 | -7.79351 | 39097 ft | 444 kts | 182° |
| 2026-05-05 12:29 | 34.87934 | -7.78839 | 39097 ft | 445 kts | 182° |
| 2026-05-05 12:29 | 34.81748 | -7.78322 | 39097 ft | 444 kts | 182° |
| 2026-05-05 12:30 | 34.75579 | -7.77808 | 39097 ft | 444 kts | 182° |
| 2026-05-05 12:30 | 34.69408 | -7.77334 | 39097 ft | 444 kts | 183° |
| 2026-05-05 12:31 | 34.63240 | -7.76918 | 39097 ft | 444 kts | 183° |
| 2026-05-05 12:31 | 34.57106 | -7.76497 | 39094 ft | 444 kts | 183° |
| 2026-05-05 12:32 | 34.50939 | -7.76068 | 39092 ft | 444 kts | 183° |
| 2026-05-05 12:32 | 34.44775 | -7.75639 | 39092 ft | 443 kts | 183° |
| 2026-05-05 12:33 | 34.38602 | -7.75210 | 39094 ft | 444 kts | 183° |
| 2026-05-05 12:33 | 34.32468 | -7.74784 | 39091 ft | 444 kts | 183° |
| 2026-05-05 12:34 | 34.26298 | -7.74357 | 39091 ft | 443 kts | 183° |
| 2026-05-05 12:34 | 34.20140 | -7.73930 | 39089 ft | 443 kts | 183° |
| 2026-05-05 12:35 | 34.13977 | -7.73435 | 39089 ft | 445 kts | 182° |
| 2026-05-05 12:35 | 34.07803 | -7.72836 | 39089 ft | 445 kts | 182° |
| 2026-05-05 12:36 | 34.01634 | -7.72253 | 39083 ft | 444 kts | 182° |
| 2026-05-05 12:36 | 33.95457 | -7.71680 | 39069 ft | 445 kts | 183° |
| 2026-05-05 12:37 | 33.89266 | -7.71109 | 39080 ft | 446 kts | 183° |
| 2026-05-05 12:37 | 33.83081 | -7.70540 | 39075 ft | 446 kts | 183° |
| 2026-05-05 12:38 | 33.76929 | -7.69976 | 39077 ft | 446 kts | 183° |
| 2026-05-05 12:38 | 33.70741 | -7.69408 | 39054 ft | 446 kts | 183° |
| 2026-05-05 12:39 | 33.64542 | -7.68838 | 39075 ft | 447 kts | 184° |
| 2026-05-05 12:39 | 33.58349 | -7.68278 | 39074 ft | 445 kts | 185° |
| 2026-05-05 12:40 | 33.52302 | -7.68849 | 39075 ft | 429 kts | 200° |
| 2026-05-05 12:40 | 33.46781 | -7.71236 | 39074 ft | 416 kts | 214° |
| 2026-05-05 12:41 | 33.41756 | -7.74585 | 39050 ft | 409 kts | 216° |
| 2026-05-05 12:41 | 33.36778 | -7.77890 | 39052 ft | 410 kts | 216° |
| 2026-05-05 12:42 | 33.31818 | -7.81175 | 39057 ft | 410 kts | 216° |
| 2026-05-05 12:42 | 33.26828 | -7.84475 | 39060 ft | 410 kts | 216° |
| 2026-05-05 12:43 | 33.21836 | -7.87771 | 39062 ft | 410 kts | 216° |
| 2026-05-05 12:43 | 33.16946 | -7.90985 | 39001 ft | 391 kts | 216° |
| 2026-05-05 12:44 | 33.14572 | -7.92548 | 38787 ft | 389 kts | 216° |
| 2026-05-05 12:44 | 33.12219 | -7.94102 | 38222 ft | 391 kts | 216° |
| 2026-05-05 12:44 | 33.09829 | -7.95681 | 37505 ft | 392 kts | 216° |
| 2026-05-05 12:44 | 33.07431 | -7.97259 | 36839 ft | 391 kts | 216° |
| 2026-05-05 12:45 | 33.05851 | -7.98297 | 36407 ft | 390 kts | 216° |
| 2026-05-05 12:45 | 33.03475 | -7.99857 | 35736 ft | 389 kts | 216° |
| 2026-05-05 12:45 | 33.01102 | -8.01415 | 35066 ft | 389 kts | 216° |
| 2026-05-05 12:45 | 32.98726 | -8.02974 | 34369 ft | 389 kts | 216° |
| 2026-05-05 12:46 | 32.96339 | -8.04496 | 33599 ft | 391 kts | 213° |
| 2026-05-05 12:46 | 32.93803 | -8.05781 | 32653 ft | 401 kts | 208° |
| 2026-05-05 12:46 | 32.91112 | -8.06732 | 32037 ft | 404 kts | 202° |
| 2026-05-05 12:46 | 32.88347 | -8.07343 | 31434 ft | 406 kts | 196° |
| 2026-05-05 12:47 | 32.85535 | -8.07796 | 30710 ft | 407 kts | 196° |